28 maggio 2022

Tempo Codice Tempo metereologico Temp. Vista Base nuvolosa Vento METAR/SPECI
5:50 pm
V
73 °F 6¼ mi+ 12.000 ft 060° 060° 8 kt METAR LIPY 281550Z AUTO 06008KT 020V090 9999 BKN120/// 23/18 Q1005
5:20 pm
V
73 °F 6¼ mi+ 13.000 ft 060° 060° 11 kt METAR LIPY 281520Z AUTO 06011KT 040V100 9999 BKN130/// BKN170/// 23/18 Q1005
4:50 pm
V
77 °F 6¼ mi+ 16.000 ft 080° 080° 11 kt METAR LIPY 281450Z AUTO 08011KT 040V110 9999 BKN160/// 25/18 Q1005
4:20 pm
V
77 °F 6¼ mi+ 15.000 ft 070° 070° 12 kt METAR LIPY 281420Z AUTO 07012KT 040V110 9999 BKN150/// 25/18 Q1005
3:50 pm
V
79 °F 6¼ mi+ 15.000 ft 070° 070° 11 kt METAR LIPY 281350Z AUTO 07011KT 040V100 9999 BKN150/// 26/18 Q1005
3:20 pm
V
79 °F 6¼ mi+ 15.000 ft 080° 080° 8 kt METAR LIPY 281320Z AUTO 08008KT 060V120 9999 BKN150/// 26/18 Q1005
2:50 pm
V
82 °F 6¼ mi+ 14.000 ft 100° 100° 7 kt METAR LIPY 281250Z AUTO 10007KT 060V140 9999 BKN140/// 28/14 Q1006
2:20 pm
V
79 °F 6¼ mi+ 14.000 ft 080° 080° 8 kt METAR LIPY 281220Z AUTO 08008KT 9999 BKN140/// 26/19 Q1006
1:50 pm
V
75 °F 6¼ mi+ - 070° 070° 7 kt METAR LIPY 281150Z AUTO 07007KT 040V100 9999 SCT130/// 24/20 Q1006
1:20 pm
V
75 °F 6¼ mi+ 14.000 ft 060° 060° 9 kt METAR LIPY 281120Z AUTO 06009KT 9999 BKN140/// 24/20 Q1007
12:50 pm
V
75 °F 6¼ mi+ 14.000 ft 070° 070° 10 kt METAR LIPY 281050Z AUTO 07010KT 9999 BKN140/// 24/20 Q1007
12:20 pm
V
79 °F 6¼ mi+ - 060° 060° 10 kt METAR LIPY 281020Z AUTO 06010KT 030V090 9999 SCT120/// SCT150/// 26/17 Q1007
11:50 am
V
82 °F 6¼ mi+ 14.000 ft Var Var 3 kt METAR LIPY 280950Z AUTO VRB03KT 9999 BKN140/// 28/15 Q1007
11:20 am
V
79 °F 6¼ mi+ - 170° 170° 3 kt METAR LIPY 280920Z AUTO 17003KT 130V210 9999 SCT094/// 26/16 Q1007
10:50 am
V
77 °F 6¼ mi+ 14.000 ft 200° 200° 6 kt METAR LIPY 280850Z AUTO 20006KT 9999 BKN140/// 25/16 Q1008
9:50 am
V
73 °F 6¼ mi+ 12.000 ft 190° 190° 4 kt METAR LIPY 280750Z AUTO 19004KT 120V230 9999 BKN120/// 23/17 Q1008
9:20 am
V
73 °F 6¼ mi+ 14.000 ft 160° 160° 4 kt METAR LIPY 280720Z AUTO 16004KT 110V190 9999 FEW120/// BKN140/// 23/17 Q1008
8:50 am
V
72 °F 6¼ mi+ 10.000 ft 130° 130° 3 kt METAR LIPY 280650Z AUTO 13003KT 100V170 9999 -RA BKN100/// 22/17 Q1008 REDZ
8:20 am
V
72 °F 6¼ mi+ 12.000 ft 240° 240° 3 kt METAR LIPY 280620Z AUTO 24003KT 210V270 9999 BKN120/// 22/16 Q1008
7:50 am
V
72 °F 6¼ mi+ 12.000 ft 160° 160° 4 kt METAR LIPY 280550Z AUTO 16004KT 110V210 9999 BKN120/// 22/16 Q1008
7:20 am
V
70 °F 6¼ mi+ 12.000 ft 170° 170° 3 kt METAR LIPY 280520Z AUTO 17003KT 9999 BKN120/// 21/16 Q1008
6:50 am
V
70 °F 6¼ mi+ 16.000 ft 200° 200° 3 kt METAR LIPY 280450Z AUTO 20003KT 160V220 9999 SCT120/// BKN160/// 21/16 Q1008
6:20 am
V
70 °F 6¼ mi+ 12.000 ft 200° 200° 3 kt METAR LIPY 280420Z AUTO 20003KT 9999 BKN120/// 21/16 Q1008
5:50 am
V
68 °F 6¼ mi+ 13.000 ft 130° 130° 4 kt METAR LIPY 280350Z AUTO 13004KT 9999 BKN130/// 20/16 Q1009
5:20 am
V
66 °F 6¼ mi+ 13.000 ft Var Var 3 kt METAR LIPY 280320Z AUTO VRB03KT 9999 -RA BKN130/// 19/16 Q1009
4:50 am
V
68 °F 6¼ mi+ 13.000 ft Var Var 1 kt METAR LIPY 280250Z AUTO VRB01KT 9999 BKN130/// BKN170/// 20/15 Q1009
4:20 am
V
68 °F 6¼ mi+ 14.000 ft 170° 170° 3 kt METAR LIPY 280220Z AUTO 17003KT 120V240 9999 BKN140/// 20/16 Q1010
3:50 am
V
68 °F 6¼ mi+ 11.000 ft 030° 030° 3 kt METAR LIPY 280150Z AUTO 03003KT 9999 FEW077/// BKN110/// 20/16 Q1009
3:20 am
V
66 °F 6¼ mi+ - Var Var 1 kt METAR LIPY 280120Z AUTO VRB01KT 9999 NCD 19/16 Q1010
2:50 am
V
68 °F 6¼ mi+ 14.000 ft 230° 230° 3 kt METAR LIPY 280050Z AUTO 23003KT 9999 BKN140/// 20/15 Q1010
2:20 am
V
68 °F 6¼ mi+ 14.000 ft 190° 190° 3 kt METAR LIPY 280020Z AUTO 19003KT 9999 BKN140/// 20/15 Q1010
1:50 am
V
66 °F 6¼ mi+ 16.000 ft 200° 200° 3 kt METAR LIPY 272350Z AUTO 20003KT 9999 BKN160/// 19/15 Q1010
1:20 am
V
66 °F 6¼ mi+ 16.000 ft 210° 210° 4 kt METAR LIPY 272320Z AUTO 21004KT 9999 BKN160/// BKN200/// 19/14 Q1011
12:50 am
V
68 °F 6¼ mi+ 17.000 ft 190° 190° 3 kt METAR LIPY 272250Z AUTO 19003KT 9999 SCT140/// BKN170/// 20/15 Q1011
12:20 am
V
68 °F 6¼ mi+ 14.000 ft Var Var 2 kt METAR LIPY 272220Z AUTO VRB02KT 9999 OVC140/// 20/14 Q1012

27 maggio 2022

Tempo Codice Tempo metereologico Temp. Vista Base nuvolosa Vento METAR/SPECI
11:50 pm
V
68 °F 6¼ mi+ 15.000 ft 140° 140° 2 kt METAR LIPY 272150Z AUTO 14002KT 9999 OVC150/// 20/14 Q1012
11:20 pm
V
66 °F 6¼ mi+ 17.000 ft 230° 230° 2 kt METAR LIPY 272120Z AUTO 23002KT 9999 OVC170/// 19/14 Q1012
10:50 pm
V
70 °F 6¼ mi+ 19.000 ft 180° 180° 3 kt METAR LIPY 272050Z AUTO 18003KT 9999 BKN190/// 21/14 Q1012
10:20 pm
V
70 °F 6¼ mi+ - Var Var 2 kt METAR LIPY 272020Z AUTO VRB02KT 9999 SCT200/// 21/14 Q1012
9:50 pm
V
72 °F 6¼ mi+ - 140° 140° 5 kt METAR LIPY 271950Z AUTO 14005KT 9999 NCD 22/13 Q1013
9:20 pm
V
73 °F 6¼ mi+ - 170° 170° 3 kt METAR LIPY 271920Z AUTO 17003KT 9999 NCD 23/14 Q1013
8:50 pm
V
73 °F 6¼ mi+ - 190° 190° 3 kt METAR LIPY 271850Z AUTO 19003KT 9999 SCT170/// 23/14 Q1013
8:20 pm
V
75 °F 6¼ mi+ 15.000 ft 170° 170° 3 kt METAR LIPY 271820Z AUTO 17003KT 9999 BKN150/// 24/13 Q1013
7:50 pm
V
75 °F 6¼ mi+ 16.000 ft Var Var 2 kt METAR LIPY 271750Z AUTO VRB02KT 9999 BKN160/// 24/13 Q1013
7:20 pm
V
77 °F 6¼ mi+ - 150° 150° 3 kt METAR LIPY 271720Z AUTO 15003KT 120V180 9999 NCD 25/13 Q1013
6:50 pm
V
77 °F 6¼ mi+ - 080° 080° 3 kt METAR LIPY 271650Z AUTO 08003KT 040V120 9999 NCD 25/11 Q1013
6:20 pm
V
77 °F 6¼ mi+ - 070° 070° 4 kt METAR LIPY 271620Z AUTO 07004KT 040V110 9999 NCD 25/12 Q1013
5:50 pm
V
77 °F 6¼ mi+ - 020° 020° 4 kt METAR LIPY 271550Z AUTO 02004KT 9999 FEW150/// 25/16 Q1014
5:20 pm
V
77 °F 6¼ mi+ - 030° 030° 3 kt METAR LIPY 271520Z AUTO 03003KT 9999 NCD 25/15 Q1014
4:50 pm
V
77 °F 6¼ mi+ - 070° 070° 5 kt METAR LIPY 271450Z AUTO 07005KT 040V110 9999 FEW220/// 25/14 Q1014
4:20 pm
V
75 °F 6¼ mi+ - 060° 060° 5 kt METAR LIPY 271420Z AUTO 06005KT 030V100 9999 NCD 24/17 Q1015
3:50 pm
V
73 °F 6¼ mi+ - 030° 030° 7 kt METAR LIPY 271350Z AUTO 03007KT 9999 SCT150/// 23/19 Q1015
3:20 pm
V
75 °F 6¼ mi+ - 030° 030° 9 kt METAR LIPY 271320Z AUTO 03009KT 9999 SCT150/// 24/19 Q1016
2:50 pm
V
77 °F 6¼ mi+ - 030° 030° 9 kt METAR LIPY 271250Z AUTO 03009KT 9999 NCD 25/18 Q1016
2:20 pm
V
77 °F 6¼ mi+ - 040° 040° 9 kt METAR LIPY 271220Z AUTO 04009KT 9999 SCT150/// 25/18 Q1016
1:50 pm
V
79 °F 6¼ mi+ 15.000 ft 040° 040° 7 kt METAR LIPY 271150Z AUTO 04007KT 9999 BKN150/// 26/17 Q1017
1:20 pm
V
79 °F 6¼ mi+ - 050° 050° 6 kt METAR LIPY 271120Z AUTO 05006KT 010V090 9999 FEW160/// 26/18 Q1017
12:50 pm
V
75 °F 6¼ mi+ - 060° 060° 5 kt METAR LIPY 271050Z AUTO 06005KT 010V090 9999 NCD 24/19 Q1017
12:20 pm
V
75 °F 6¼ mi+ - 050° 050° 8 kt METAR LIPY 271020Z AUTO 05008KT 9999 SCT150/// 24/19 Q1018
11:50 am
V
75 °F 6¼ mi+ - 040° 040° 7 kt METAR LIPY 270950Z AUTO 04007KT 9999 NCD 24/19 Q1018
11:20 am
V
75 °F 6¼ mi+ - 040° 040° 6 kt METAR LIPY 270920Z AUTO 04006KT 9999 SCT150/// 24/19 Q1018
10:50 am
V
77 °F 6¼ mi+ 15.000 ft 010° 010° 4 kt METAR LIPY 270850Z AUTO 01004KT 340V060 9999 BKN150/// 25/19 Q1018
10:20 am
V
75 °F 6¼ mi+ 17.000 ft 350° 350° 3 kt METAR LIPY 270820Z AUTO 35003KT 290V040 9999 SCT140/// BKN170/// 24/19 Q1018
9:50 am
V
75 °F 6¼ mi+ 14.000 ft Var Var 2 kt METAR LIPY 270750Z AUTO VRB02KT 9999 BKN140/// BKN160/// 24/19 Q1018
9:20 am
V
72 °F 6¼ mi+ 17.000 ft Var Var 1 kt METAR LIPY 270720Z AUTO VRB01KT 9999 BKN170/// 22/19 Q1018
8:50 am
V
70 °F 6¼ mi+ 15.000 ft 220° 220° 5 kt METAR LIPY 270650Z AUTO 22005KT 9999 BKN150/// 21/19 Q1018
8:20 am
V
70 °F 6¼ mi+ 15.000 ft 230° 230° 4 kt METAR LIPY 270620Z AUTO 23004KT 9999 BKN150/// 21/19 Q1018
7:50 am
V
68 °F 6¼ mi+ 14.000 ft 230° 230° 3 kt METAR LIPY 270550Z AUTO 23003KT 9999 BKN140/// BKN180/// 20/18 Q1018
7:20 am
V
68 °F 6¼ mi+ 16.000 ft Var Var 1 kt METAR LIPY 270520Z AUTO VRB01KT 9999 FEW140/// BKN160/// 20/18 Q1018
6:50 am
V
66 °F 6¼ mi+ 16.000 ft Var Var 2 kt METAR LIPY 270450Z AUTO VRB02KT 9999 BKN160/// 19/17 Q1018
6:20 am
V
63 °F 6¼ mi+ 15.000 ft Var Var 2 kt METAR LIPY 270420Z AUTO VRB02KT 9999 OVC150/// 17/16 Q1018
5:50 am
V
63 °F 6¼ mi+ 16.000 ft Var Var 2 kt METAR LIPY 270350Z AUTO VRB02KT 9999 OVC160/// 17/16 Q1018
5:20 am
V
63 °F 6¼ mi+ 17.000 ft 160° 160° 3 kt METAR LIPY 270320Z AUTO 16003KT 120V210 9999 SCT140/// BKN170/// 17/15 Q1018
4:50 am
V
63 °F 6¼ mi+ 22.000 ft 170° 170° 3 kt METAR LIPY 270250Z AUTO 17003KT 140V200 9999 SCT180/// BKN220/// 17/15 Q1018
4:20 am
V
63 °F 6¼ mi+ - Var Var 2 kt METAR LIPY 270220Z AUTO VRB02KT 9999 SCT220/// 17/15 Q1018
3:50 am
V
63 °F 6¼ mi+ 16.000 ft 160° 160° 3 kt METAR LIPY 270150Z AUTO 16003KT 9999 BKN160/// 17/15 Q1018
3:20 am
V
63 °F 6¼ mi+ 16.000 ft 200° 200° 3 kt METAR LIPY 270120Z AUTO 20003KT 160V230 9999 BKN160/// 17/15 Q1019
2:50 am
V
63 °F 6¼ mi+ - 200° 200° 3 kt METAR LIPY 270050Z AUTO 20003KT 9999 SCT160/// 17/15 Q1019
2:20 am
V
64 °F 6¼ mi+ - 170° 170° 3 kt METAR LIPY 270020Z AUTO 17003KT 9999 NCD 18/16 Q1019
1:50 am
V
64 °F 6¼ mi+ - Var Var 2 kt METAR LIPY 262350Z AUTO VRB02KT 9999 NCD 18/16 Q1019
1:20 am
V
64 °F 6¼ mi+ - 200° 200° 2 kt METAR LIPY 262320Z AUTO 20002KT 9999 FEW160/// 18/16 Q1019
12:50 am
V
66 °F 6¼ mi+ 16.000 ft 160° 160° 3 kt METAR LIPY 262250Z AUTO 16003KT 9999 FEW140/// BKN160/// 19/16 Q1019
12:20 am
V
66 °F 6¼ mi+ 18.000 ft 170° 170° 3 kt METAR LIPY 262220Z AUTO 17003KT 9999 SCT140/// SCT150/// BKN180/// 19/16 Q1019

26 maggio 2022

Tempo Codice Tempo metereologico Temp. Vista Base nuvolosa Vento METAR/SPECI
11:50 pm
V
66 °F 6¼ mi+ 15.000 ft 180° 180° 4 kt METAR LIPY 262150Z AUTO 18004KT 9999 BKN150/// 19/17 Q1020
11:20 pm
V
68 °F 6¼ mi+ 16.000 ft 160° 160° 3 kt METAR LIPY 262120Z AUTO 16003KT 130V190 9999 BKN160/// 20/17 Q1019
10:50 pm
V
68 °F 6¼ mi+ 16.000 ft 170° 170° 3 kt METAR LIPY 262050Z AUTO 17003KT 9999 BKN160/// 20/17 Q1019
10:20 pm
V
68 °F 6¼ mi+ 15.000 ft Var Var 2 kt METAR LIPY 262020Z AUTO VRB02KT 9999 BKN150/// 20/17 Q1020
9:50 pm
V
68 °F 6¼ mi+ - Var Var 2 kt METAR LIPY 261950Z AUTO VRB02KT 9999 SCT140/// 20/18 Q1019
9:20 pm
V
68 °F 6¼ mi+ - Var Var 1 kt METAR LIPY 261920Z AUTO VRB01KT 9999 -RA FEW150/// 20/18 Q1019
8:50 pm
V
68 °F 6¼ mi+ - 350° 350° 3 kt METAR LIPY 261850Z AUTO 35003KT 9999 NCD 20/17 Q1019
8:20 pm
V
70 °F 6¼ mi+ - 020° 020° 5 kt METAR LIPY 261820Z AUTO 02005KT 9999 FEW180/// 21/18 Q1019
7:50 pm
V
70 °F 6¼ mi+ - 030° 030° 6 kt METAR LIPY 261750Z AUTO 03006KT 9999 NCD 21/16 Q1019
7:20 pm
V
73 °F 6¼ mi+ - 020° 020° 6 kt METAR LIPY 261720Z AUTO 02006KT 9999 NCD 23/16 Q1019
6:50 pm
V
75 °F 6¼ mi+ - 030° 030° 4 kt METAR LIPY 261650Z AUTO 03004KT 9999 NCD 24/16 Q1019
6:20 pm
V
75 °F 6¼ mi+ - 080° 080° 3 kt METAR LIPY 261620Z AUTO 08003KT 040V130 9999 FEW180/// 24/16 Q1019
5:50 pm
V
73 °F 6¼ mi+ - 060° 060° 5 kt METAR LIPY 261550Z AUTO 06005KT 9999 FEW180/// SCT210/// 23/17 Q1019
5:20 pm
V
73 °F 6¼ mi+ - 050° 050° 6 kt METAR LIPY 261520Z AUTO 05006KT 020V080 9999 FEW220/// 23/17 Q1019
4:50 pm
V
73 °F 6¼ mi+ - 040° 040° 8 kt METAR LIPY 261450Z AUTO 04008KT 020V080 9999 FEW200/// 23/17 Q1019
Dati più vecchi

Scarica la nostra applicazione

Facile accesso a tutte le previsioni dell'aviazione sul tuo cellulare e tablet.
Con molte caratteristiche non disponibili sul sito web, come il supporto offline e una lista personale di aeroporti.

Noi e le terze parti seguiamo il tuo comportamento in internet sul nostro sito web con i cookie. Se continui, riteniamo che tu sia d'accordo con la nostra politica sui cookie. Per saperne di più